Time;durP1;ratioP1;P1;durP2;ratioP2;P2;SDS_P1;SDS_P2;PMS_P1;PMS_P2;Temp;Humidity;BMP_temperature;BMP_pressure;BME280_temperature;BME280_humidity;BME280_pressure;Samples;Min_cycle;Max_cycle;Signal;HPM_P1;HPM_P2
2021/05/19 00:01:55;;;;;;;7.25;6.00;;;384.80;1817.60;;;;;;5094171;28;20044;-66
2021/05/19 00:04:21;;;;;;;13.43;7.20;;;384.70;1894.40;;;;;;5095426;28;20047;-65
2021/05/19 00:06:47;;;;;;;12.00;5.95;;;384.70;1843.20;;;;;;5095209;28;20032;-65
2021/05/19 00:09:15;;;;;;;11.90;6.97;;;384.60;1868.80;;;;;;5110956;28;20024;-66
2021/05/19 00:11:45;;;;;;;10.57;6.95;;;384.70;1868.80;;;;;;5094160;28;20036;-65
2021/05/19 00:14:12;;;;;;;14.85;6.05;;;384.70;1894.40;;;;;;5095282;28;20051;-66
2021/05/19 00:16:38;;;;;;;12.95;6.30;;;384.70;1894.40;;;;;;5095889;28;20468;-65
2021/05/19 00:19:04;;;;;;;13.98;7.03;;;384.60;1894.40;;;;;;5095376;28;20031;-67
2021/05/19 00:21:31;;;;;;;12.23;8.32;;;384.50;1843.20;;;;;;5095308;28;20036;-65
2021/05/19 00:23:57;;;;;;;15.18;8.98;;;384.50;1843.20;;;;;;5095382;28;20062;-65
2021/05/19 00:26:24;;;;;;;14.35;8.88;;;384.60;1868.80;;;;;;5095333;28;20484;-65
2021/05/19 00:28:54;;;;;;;14.95;7.10;;;384.60;1868.80;;;;;;5095301;28;20051;-67
2021/05/19 00:31:22;;;;;;;11.10;6.88;;;384.70;1868.80;;;;;;5095231;28;20020;-65
2021/05/19 00:33:48;;;;;;;12.82;7.07;;;384.70;1868.80;;;;;;5095408;28;20052;-65
2021/05/19 00:36:14;;;;;;;16.25;8.02;;;384.70;1868.80;;;;;;5095218;28;20054;-65
2021/05/19 00:38:40;;;;;;;17.27;8.27;;;384.60;1868.80;;;;;;5095069;28;20432;-65
2021/05/19 00:41:08;;;;;;;13.55;7.60;;;384.50;1894.40;;;;;;5094989;28;20048;-65
2021/05/19 00:43:34;;;;;;;13.02;7.88;;;384.50;1894.40;;;;;;5094967;28;20024;-65
2021/05/19 00:46:00;;;;;;;14.40;7.90;;;384.50;1894.40;;;;;;5095223;28;20020;-65
2021/05/19 00:48:26;;;;;;;15.95;8.10;;;384.50;1868.80;;;;;;5095078;28;20030;-66
2021/05/19 00:50:52;;;;;;;14.35;7.28;;;384.60;1868.80;;;;;;5094833;28;20495;-66
2021/05/19 00:53:18;;;;;;;14.52;7.80;;;384.60;1868.80;;;;;;5093797;28;20031;-65
2021/05/19 00:55:44;;;;;;;13.73;7.25;;;384.70;1868.80;;;;;;5093487;28;20024;-65
2021/05/19 00:58:11;;;;;;;11.63;7.18;;;384.70;1843.20;;;;;;5093963;28;20016;-66
2021/05/19 01:00:37;;;;;;;13.95;7.00;;;384.80;1843.20;;;;;;5094689;28;20465;-65
2021/05/19 01:03:03;;;;;;;10.52;6.85;;;384.70;1843.20;;;;;;5094622;28;20031;-64
2021/05/19 01:05:39;;;;;;;9.63;5.85;;;384.70;1843.20;;;;;;5094604;28;20024;-65
2021/05/19 01:10:52;;;;;;;11.25;6.07;;;384.70;1843.20;;;;;;5094731;28;20035;-65
2021/05/19 01:13:18;;;;;;;12.00;6.85;;;384.70;1817.60;;;;;;5094416;28;20012;-65
2021/05/19 01:15:45;;;;;;;11.48;6.60;;;384.70;1843.20;;;;;;5094307;28;20113;-65
2021/05/19 01:18:10;;;;;;;14.13;7.28;;;384.70;1843.20;;;;;;5094340;28;20099;-65
2021/05/19 01:20:37;;;;;;;12.30;6.72;;;384.60;1868.80;;;;;;5094273;28;20103;-65
2021/05/19 01:23:04;;;;;;;12.20;7.07;;;384.60;1894.40;;;;;;5094575;28;20024;-65
2021/05/19 01:25:31;;;;;;;10.77;6.35;;;384.60;1868.80;;;;;;5094108;28;20024;-65
2021/05/19 01:27:59;;;;;;;10.52;6.30;;;384.50;1868.80;;;;;;5094193;28;20023;-65
2021/05/19 01:30:26;;;;;;;11.30;6.22;;;384.50;1894.40;;;;;;5094107;28;20472;-66
2021/05/19 01:32:52;;;;;;;13.55;6.75;;;384.60;1894.40;;;;;;5092745;28;20423;-65
2021/05/19 01:35:19;;;;;;;10.25;6.40;;;384.60;1894.40;;;;;;5093625;28;20020;-66
2021/05/19 01:37:46;;;;;;;10.07;6.00;;;384.60;1868.80;;;;;;5093994;28;20024;-65
2021/05/19 01:40:15;;;;;;;7.53;5.47;;;384.60;1894.40;;;;;;5093876;28;20065;-66
2021/05/19 01:42:45;;;;;;;9.60;6.00;;;384.50;1868.80;;;;;;5094343;28;20028;-65
2021/05/19 01:45:14;;;;;;;9.50;5.85;;;384.40;1868.80;;;;;;5094041;28;20027;-66
2021/05/19 01:47:47;;;;;;;10.32;5.45;;;384.40;1894.40;;;;;;5093815;28;20024;-66
2021/05/19 01:50:16;;;;;;;9.63;5.70;;;384.40;1894.40;;;;;;5093862;28;20165;-66
2021/05/19 01:52:43;;;;;;;7.00;5.20;;;384.40;1894.40;;;;;;5093742;28;20738;-65
2021/05/19 01:55:11;;;;;;;7.55;5.20;;;384.40;1920.00;;;;;;5092474;28;20543;-65
2021/05/19 01:57:38;;;;;;;6.18;4.72;;;384.50;1868.80;;;;;;5093707;28;20132;-66
2021/05/19 02:00:06;;;;;;;6.20;4.93;;;384.50;1868.80;;;;;;5092369;28;20141;-65
2021/05/19 02:02:32;;;;;;;5.88;4.35;;;384.50;1843.20;;;;;;5093580;28;20064;-66
2021/05/19 02:04:59;;;;;;;6.97;3.95;;;384.50;1843.20;;;;;;5093603;28;20530;-65
2021/05/19 02:07:26;;;;;;;9.02;4.72;;;384.60;1843.20;;;;;;5093689;28;20510;-66
2021/05/19 02:09:52;;;;;;;9.82;5.30;;;384.60;1843.20;;;;;;5093355;28;20484;-65
2021/05/19 02:12:18;;;;;;;8.52;5.05;;;384.60;1894.40;;;;;;5093569;28;20032;-65
2021/05/19 02:14:44;;;;;;;8.52;4.60;;;384.50;1894.40;;;;;;5093642;28;20389;-66
2021/05/19 02:17:11;;;;;;;6.53;4.35;;;384.50;1894.40;;;;;;5093664;28;20384;-66
2021/05/19 02:19:38;;;;;;;6.30;4.72;;;384.60;1868.80;;;;;;5093426;28;20031;-66
2021/05/19 02:22:05;;;;;;;9.15;4.40;;;384.60;1868.80;;;;;;5093281;28;20071;-65
2021/05/19 02:24:32;;;;;;;6.47;4.45;;;384.50;1843.20;;;;;;5093684;28;20059;-67
2021/05/19 02:26:58;;;;;;;11.48;4.47;;;384.50;1843.20;;;;;;5092127;28;20024;-66
2021/05/19 02:29:24;;;;;;;7.93;4.25;;;384.50;1868.80;;;;;;5093394;28;20496;-65
2021/05/19 02:31:51;;;;;;;9.85;5.18;;;384.50;1868.80;;;;;;5093662;28;20059;-65
2021/05/19 02:34:16;;;;;;;8.50;4.85;;;384.50;1894.40;;;;;;5093294;28;20032;-65
2021/05/19 02:36:43;;;;;;;9.27;4.95;;;384.60;1868.80;;;;;;5093330;28;20024;-66
2021/05/19 02:39:10;;;;;;;8.77;4.50;;;384.60;1894.40;;;;;;5093821;28;20024;-66
2021/05/19 02:41:38;;;;;;;8.55;5.30;;;384.50;1894.40;;;;;;5093485;28;20040;-65
2021/05/19 02:44:05;;;;;;;12.88;4.95;;;384.50;1894.40;;;;;;5093274;28;20020;-65
2021/05/19 02:46:31;;;;;;;14.40;5.45;;;384.60;1894.40;;;;;;5093279;28;20499;-65
2021/05/19 02:49:02;;;;;;;8.07;4.40;;;384.60;1868.80;;;;;;5093229;28;20025;-65
2021/05/19 02:51:32;;;;;;;10.98;5.25;;;384.60;1868.80;;;;;;5093230;28;20024;-65
2021/05/19 02:53:58;;;;;;;14.63;4.90;;;384.70;1868.80;;;;;;5093174;28;20028;-64
2021/05/19 02:56:24;;;;;;;10.27;4.97;;;384.70;1894.40;;;;;;5093153;28;20031;-65
2021/05/19 02:58:51;;;;;;;17.05;6.05;;;384.70;1868.80;;;;;;5093087;28;20380;-64
2021/05/19 03:01:17;;;;;;;11.93;5.32;;;384.70;1868.80;;;;;;5093592;28;20469;-65
2021/05/19 03:03:44;;;;;;;10.13;5.20;;;384.60;1868.80;;;;;;5091834;28;20031;-65
2021/05/19 03:06:10;;;;;;;7.88;4.93;;;384.70;1868.80;;;;;;5091817;28;20020;-66
2021/05/19 03:08:37;;;;;;;8.50;4.95;;;384.70;1894.40;;;;;;5093051;28;20036;-65
2021/05/19 03:11:04;;;;;;;7.47;4.63;;;384.60;1894.40;;;;;;5093032;28;20099;-65
2021/05/19 03:13:31;;;;;;;6.43;4.03;;;384.60;1868.80;;;;;;5093000;28;20055;-65
2021/05/19 03:15:57;;;;;;;10.77;4.55;;;384.60;1817.60;;;;;;5092856;28;20133;-65
2021/05/19 03:18:23;;;;;;;9.48;4.90;;;384.60;1843.20;;;;;;5092902;28;20012;-65
2021/05/19 03:20:49;;;;;;;10.18;4.65;;;384.70;1843.20;;;;;;5094242;28;20144;-65
2021/05/19 03:23:15;;;;;;;10.40;4.65;;;384.70;1843.20;;;;;;5096575;28;20362;-66
2021/05/19 03:25:42;;;;;;;11.25;4.28;;;384.70;1868.80;;;;;;5096548;28;20025;-66
2021/05/19 03:28:08;;;;;;;7.35;4.28;;;384.70;1843.20;;;;;;5096489;28;20058;-65
2021/05/19 03:30:35;;;;;;;10.68;4.53;;;384.70;1843.20;;;;;;5096498;28;20373;-65
2021/05/19 03:33:01;;;;;;;7.32;4.95;;;384.70;1868.80;;;;;;5096369;28;20020;-65
2021/05/19 03:35:27;;;;;;;10.07;5.47;;;384.60;1868.80;;;;;;5096565;28;20043;-66
2021/05/19 03:37:53;;;;;;;9.55;4.97;;;384.60;1868.80;;;;;;5096642;28;20035;-65
2021/05/19 03:40:19;;;;;;;9.52;5.70;;;384.50;1894.40;;;;;;5096158;28;20027;-65
2021/05/19 03:42:45;;;;;;;11.90;5.65;;;384.50;1868.80;;;;;;5096431;28;20530;-64
2021/05/19 03:45:14;;;;;;;13.52;6.25;;;384.60;1868.80;;;;;;5096099;28;20016;-66
2021/05/19 03:47:41;;;;;;;13.55;6.28;;;384.60;1868.80;;;;;;5096125;28;20107;-66
2021/05/19 03:50:09;;;;;;;12.95;6.07;;;384.50;1894.40;;;;;;5096310;28;20070;-64
2021/05/19 03:52:35;;;;;;;15.60;6.60;;;384.50;1894.40;;;;;;5096020;28;20469;-64
2021/05/19 03:55:01;;;;;;;18.63;7.82;;;384.50;1894.40;;;;;;5096527;28;20425;-64
2021/05/19 03:57:27;;;;;;;26.92;7.10;;;384.60;1920.00;;;;;;5095858;28;20028;-65
2021/05/19 03:59:53;;;;;;;19.15;5.93;;;384.60;1920.00;;;;;;5095849;28;20093;-64
2021/05/19 04:02:19;;;;;;;16.58;6.07;;;384.60;1894.40;;;;;;5094484;28;20064;-65
2021/05/19 04:04:45;;;;;;;10.95;5.05;;;384.70;1868.80;;;;;;5096128;28;20440;-65
2021/05/19 04:07:11;;;;;;;18.63;5.80;;;384.70;1843.20;;;;;;5095601;28;20020;-67
2021/05/19 04:09:37;;;;;;;18.33;6.05;;;384.70;1868.80;;;;;;5095719;28;20362;-66
2021/05/19 04:12:04;;;;;;;20.73;5.90;;;384.70;1894.40;;;;;;5094349;28;20469;-65
2021/05/19 04:14:30;;;;;;;10.63;5.55;;;384.70;1894.40;;;;;;5095420;28;20048;-64
2021/05/19 04:16:57;;;;;;;7.40;5.05;;;384.70;1920.00;;;;;;5095421;28;20101;-66
2021/05/19 04:19:23;;;;;;;18.00;5.65;;;384.60;1920.00;;;;;;5095467;28;20020;-66
2021/05/19 04:21:48;;;;;;;13.57;5.70;;;384.60;1894.40;;;;;;5095036;28;20443;-65
2021/05/19 04:24:14;;;;;;;12.77;6.05;;;384.60;1894.40;;;;;;5094067;28;20032;-66
2021/05/19 04:26:40;;;;;;;14.32;7.03;;;384.70;1894.40;;;;;;5095556;28;20032;-65
2021/05/19 04:29:06;;;;;;;17.33;7.05;;;384.60;1894.40;;;;;;5095316;28;20051;-66
2021/05/19 04:31:32;;;;;;;13.45;6.57;;;384.60;1868.80;;;;;;5095401;28;20024;-66
2021/05/19 04:33:58;;;;;;;13.88;6.57;;;384.60;1894.40;;;;;;5095191;28;20023;-66
2021/05/19 04:36:24;;;;;;;9.52;4.82;;;384.70;1920.00;;;;;;5095109;28;20078;-64
2021/05/19 04:38:50;;;;;;;9.00;4.47;;;384.60;1894.40;;;;;;5095104;28;20043;-64
2021/05/19 04:41:16;;;;;;;7.65;4.35;;;384.60;1920.00;;;;;;5095055;28;20485;-67
2021/05/19 04:43:43;;;;;;;8.80;3.50;;;384.60;1894.40;;;;;;5095235;28;20024;-64
2021/05/19 04:46:09;;;;;;;6.03;3.30;;;384.60;1868.80;;;;;;5095009;28;20036;-65
2021/05/19 04:48:35;;;;;;;6.80;3.65;;;384.50;1868.80;;;;;;5095205;28;20024;-65
2021/05/19 04:51:01;;;;;;;6.88;3.50;;;384.40;1894.40;;;;;;5095166;28;20046;-65
2021/05/19 04:53:27;;;;;;;4.10;3.25;;;384.50;1945.60;;;;;;5094886;28;20028;-66
2021/05/19 04:55:53;;;;;;;7.82;3.35;;;384.50;1945.60;;;;;;5094935;28;20110;-65
2021/05/19 04:58:25;;;;;;;5.25;3.90;;;384.50;1945.60;;;;;;5094766;28;20052;-65
2021/05/19 05:00:50;;;;;;;4.97;3.72;;;384.60;1945.60;;;;;;5094947;28;20479;-67
2021/05/19 05:03:18;;;;;;;6.45;3.78;;;384.60;1920.00;;;;;;5094551;28;20111;-64
2021/05/19 05:05:45;;;;;;;5.55;3.63;;;384.60;1945.60;;;;;;5094618;28;20028;-65
2021/05/19 05:08:11;;;;;;;4.13;3.22;;;384.60;1971.20;;;;;;5094845;28;20097;-65
2021/05/19 05:10:37;;;;;;;4.65;2.92;;;384.70;1945.60;;;;;;5094517;28;20095;-65
2021/05/19 05:13:03;;;;;;;4.43;3.15;;;384.70;1894.40;;;;;;5094450;28;20063;-65
2021/05/19 05:15:29;;;;;;;5.05;2.70;;;384.60;1894.40;;;;;;5094342;28;20101;-65
2021/05/19 05:17:55;;;;;;;5.95;2.80;;;384.70;1894.40;;;;;;5094379;28;20098;-65
2021/05/19 05:20:23;;;;;;;4.65;3.20;;;384.60;1894.40;;;;;;5094287;28;20107;-65
2021/05/19 05:22:49;;;;;;;4.28;2.88;;;384.60;1894.40;;;;;;5094730;28;20032;-65
2021/05/19 05:25:17;;;;;;;5.25;2.70;;;384.70;1920.00;;;;;;5094231;28;20022;-64
2021/05/19 05:27:47;;;;;;;5.07;3.30;;;384.80;1920.00;;;;;;5094462;28;20588;-64
2021/05/19 05:30:13;;;;;;;4.93;2.95;;;384.80;1920.00;;;;;;5094182;28;20440;-64
2021/05/19 05:32:39;;;;;;;9.40;6.18;;;384.90;1920.00;;;;;;5094146;28;20047;-64
2021/05/19 05:35:07;;;;;;;10.73;7.70;;;384.90;1920.00;;;;;;5093232;28;20027;-64
2021/05/19 05:37:33;;;;;;;11.00;8.25;;;384.80;1945.60;;;;;;5090912;28;20016;-67
2021/05/19 05:39:59;;;;;;;28.30;20.17;;;384.80;1920.00;;;;;;5093490;28;20024;-65
2021/05/19 05:42:28;;;;;;;34.08;26.73;;;384.90;1945.60;;;;;;5093349;28;20446;-64
2021/05/19 05:44:54;;;;;;;16.02;12.57;;;409.60;1971.20;;;;;;5090743;28;20028;-67
2021/05/19 05:47:20;;;;;;;12.73;8.60;;;409.60;1945.60;;;;;;5093771;28;20028;-64
2021/05/19 05:49:45;;;;;;;6.85;3.95;;;409.70;1945.60;;;;;;5093780;28;20519;-63
2021/05/19 05:52:11;;;;;;;5.60;3.78;;;409.60;1971.20;;;;;;5092395;28;20020;-66
2021/05/19 05:54:38;;;;;;;7.45;5.43;;;409.60;1996.80;;;;;;5093651;28;20107;-64
2021/05/19 05:57:04;;;;;;;11.85;7.13;;;409.70;1971.20;;;;;;5093021;28;20020;-64
2021/05/19 05:59:30;;;;;;;4.90;3.92;;;409.80;1971.20;;;;;;5092381;28;20028;-64
2021/05/19 06:01:56;;;;;;;8.27;6.15;;;409.70;1996.80;;;;;;5093576;28;20028;-64
2021/05/19 06:04:21;;;;;;;110.47;79.88;;;409.70;1971.20;;;;;;5093640;28;20524;-66
2021/05/19 06:06:47;;;;;;;10.30;5.70;;;409.80;1996.80;;;;;;5093730;28;20024;-65
2021/05/19 06:09:13;;;;;;;7.45;5.07;;;409.60;1971.20;;;;;;5093658;28;20477;-67
2021/05/19 06:11:40;;;;;;;6.25;4.10;;;409.70;1996.80;;;;;;5093514;28;20032;-64
2021/05/19 06:14:06;;;;;;;8.20;3.85;;;409.80;1996.80;;;;;;5093104;28;20031;-65
2021/05/19 06:16:32;;;;;;;7.90;4.78;;;409.60;1971.20;;;;;;5093531;28;20048;-65
2021/05/19 06:18:58;;;;;;;9.05;5.50;;;409.80;1996.80;;;;;;5093561;28;20419;-64
2021/05/19 06:21:23;;;;;;;13.80;6.95;;;409.60;1971.20;;;;;;5093265;28;20111;-65
2021/05/19 06:23:49;;;;;;;6.45;4.15;;;409.80;1945.60;;;;;;5093408;28;20069;-65
2021/05/19 06:26:15;;;;;;;9.82;3.90;;;409.70;1996.80;;;;;;5092922;28;20016;-66
2021/05/19 06:28:41;;;;;;;6.38;3.90;;;409.70;1971.20;;;;;;5092515;28;20023;-66
2021/05/19 06:31:07;;;;;;;8.18;4.05;;;409.80;1971.20;;;;;;5092805;28;20028;-66
2021/05/19 06:33:33;;;;;;;13.70;7.00;;;409.80;1971.20;;;;;;5093200;28;20020;-67
2021/05/19 06:35:58;;;;;;;10.27;4.15;;;409.80;1971.20;;;;;;5093227;28;20094;-66
2021/05/19 06:38:24;;;;;;;11.20;5.05;;;409.80;1945.60;;;;;;5093231;28;20481;-67
2021/05/19 06:40:50;;;;;;;12.63;4.75;;;409.80;1971.20;;;;;;5093009;28;20024;-66
2021/05/19 06:43:16;;;;;;;10.10;4.68;;;409.90;1971.20;;;;;;5091265;28;20033;-66
2021/05/19 06:45:42;;;;;;;7.60;3.40;;;410.00;1945.60;;;;;;5092006;28;20056;-67
2021/05/19 06:48:08;;;;;;;8.20;5.53;;;410.10;1945.60;;;;;;5092746;28;20032;-65
2021/05/19 06:50:34;;;;;;;8.32;4.53;;;410.10;1945.60;;;;;;5090519;28;20024;-65
2021/05/19 06:52:59;;;;;;;6.47;4.18;;;410.10;1920.00;;;;;;5092602;28;20027;-63
2021/05/19 06:55:26;;;;;;;7.60;4.38;;;410.20;1945.60;;;;;;5092404;28;20036;-66
2021/05/19 06:57:52;;;;;;;9.55;4.97;;;410.30;1945.60;;;;;;5095878;28;20426;-65
2021/05/19 07:00:19;;;;;;;14.13;4.50;;;410.30;1945.60;;;;;;5095547;28;20495;-66
2021/05/19 07:02:45;;;;;;;16.88;5.65;;;410.20;1945.60;;;;;;5096663;28;20046;-67
2021/05/19 07:05:11;;;;;;;7.65;4.90;;;410.20;1945.60;;;;;;5096850;28;20020;-65
2021/05/19 07:07:38;;;;;;;7.93;4.88;;;410.10;1945.60;;;;;;5095956;28;20027;-66
2021/05/19 07:10:06;;;;;;;9.38;4.88;;;410.10;1920.00;;;;;;5095831;28;20472;-66
2021/05/19 07:12:32;;;;;;;9.30;4.50;;;410.10;1945.60;;;;;;5096698;28;20476;-66
2021/05/19 07:15:01;;;;;;;7.57;4.30;;;410.10;1920.00;;;;;;5096644;28;20079;-66
2021/05/19 07:17:27;;;;;;;5.47;4.10;;;410.20;1920.00;;;;;;5096854;28;20032;-64
2021/05/19 07:19:53;;;;;;;6.32;4.32;;;410.20;1894.40;;;;;;5096568;28;20499;-65
2021/05/19 07:22:19;;;;;;;14.85;5.05;;;410.20;1894.40;;;;;;5096411;28;20036;-64
2021/05/19 07:24:47;;;;;;;8.18;4.93;;;410.30;1894.40;;;;;;5096479;28;20025;-66
2021/05/19 07:27:13;;;;;;;10.60;4.60;;;410.20;1920.00;;;;;;5096675;28;20028;-64
2021/05/19 07:29:39;;;;;;;10.45;4.32;;;410.30;1920.00;;;;;;5095221;28;20035;-66
2021/05/19 07:32:05;;;;;;;8.68;4.80;;;410.30;1894.40;;;;;;5096310;28;20085;-66
2021/05/19 07:34:32;;;;;;;9.07;4.38;;;410.30;1894.40;;;;;;5096122;28;20031;-67
2021/05/19 07:36:58;;;;;;;8.45;4.80;;;410.20;1920.00;;;;;;5096259;28;20020;-65
2021/05/19 07:39:24;;;;;;;8.73;4.18;;;410.30;1920.00;;;;;;5095428;28;20089;-65
2021/05/19 07:41:49;;;;;;;10.75;4.70;;;410.30;1920.00;;;;;;5094999;28;20119;-66
2021/05/19 07:44:15;;;;;;;9.48;4.32;;;410.30;1894.40;;;;;;5095334;28;20019;-66
2021/05/19 07:46:41;;;;;;;13.95;4.55;;;410.30;1920.00;;;;;;5095438;28;20407;-67
2021/05/19 07:49:07;;;;;;;9.07;4.85;;;410.30;1894.40;;;;;;5094552;28;21121;-65
2021/05/19 07:51:34;;;;;;;11.68;4.65;;;410.30;1920.00;;;;;;5093692;28;20032;-66
2021/05/19 07:54:00;;;;;;;7.35;4.65;;;410.30;1920.00;;;;;;5094019;28;20026;-65
2021/05/19 07:56:54;;;;;;;7.63;5.03;;;410.30;1920.00;;;;;;5094227;28;20061;-65
2021/05/19 07:59:16;;;;;;;7.15;4.80;;;410.30;1920.00;;;;;;5093320;28;20056;-65
2021/05/19 08:02:27;;;;;;;10.32;5.55;;;410.30;1945.60;;;;;;5094018;28;20066;-65
2021/05/19 08:04:30;;;;;;;6.45;4.70;;;410.30;1971.20;;;;;;5088602;28;20054;-66
2021/05/19 08:06:56;;;;;;;16.65;6.03;;;410.30;1945.60;;;;;;5094086;28;20481;-66
2021/05/19 08:09:22;;;;;;;12.52;6.53;;;410.30;1971.20;;;;;;5094319;28;20042;-65
2021/05/19 08:11:48;;;;;;;13.70;6.20;;;410.40;1945.60;;;;;;5094157;28;20032;-65
2021/05/19 08:14:15;;;;;;;9.13;6.50;;;410.40;1945.60;;;;;;5094008;28;20018;-65
2021/05/19 08:16:41;;;;;;;13.00;6.38;;;410.40;1945.60;;;;;;5097843;28;20509;-64
2021/05/19 08:19:07;;;;;;;10.10;6.43;;;410.50;1945.60;;;;;;5094353;28;20073;-66
2021/05/19 08:21:33;;;;;;;9.73;6.28;;;410.50;1920.00;;;;;;5090860;28;20040;-65
2021/05/19 08:23:59;;;;;;;11.30;6.35;;;410.50;1920.00;;;;;;5093746;28;20020;-65
2021/05/19 08:26:25;;;;;;;11.25;6.60;;;410.50;1945.60;;;;;;5093897;28;20012;-66
2021/05/19 08:28:51;;;;;;;7.57;5.78;;;410.50;1920.00;;;;;;5093771;28;20016;-65
2021/05/19 08:31:19;;;;;;;9.05;6.28;;;410.50;1945.60;;;;;;5093618;28;20024;-66
2021/05/19 08:33:49;;;;;;;8.82;6.18;;;410.50;1945.60;;;;;;5093797;28;20020;-66
2021/05/19 08:36:16;;;;;;;9.00;6.03;;;410.40;1945.60;;;;;;5090617;28;20056;-65
2021/05/19 08:38:45;;;;;;;8.55;5.97;;;410.50;1945.60;;;;;;5091194;28;20024;-65
2021/05/19 08:41:11;;;;;;;10.02;6.43;;;410.50;1971.20;;;;;;5092775;28;20031;-65
2021/05/19 08:43:37;;;;;;;8.70;5.70;;;410.50;1971.20;;;;;;5094147;28;20032;-66
2021/05/19 08:46:11;;;;;;;11.70;6.57;;;410.50;1971.20;;;;;;5093628;28;20026;-66
2021/05/19 08:48:39;;;;;;;7.97;5.97;;;410.50;1996.80;;;;;;5093543;28;20046;-66
2021/05/19 08:51:06;;;;;;;11.30;7.10;;;410.40;1996.80;;;;;;5093002;28;20031;-65
2021/05/19 08:53:33;;;;;;;13.18;8.15;;;410.50;1996.80;;;;;;5093166;28;20381;-65
2021/05/19 08:56:04;;;;;;;15.48;8.85;;;435.20;1996.80;;;;;;5093569;28;20099;-66
2021/05/19 08:58:29;;;;;;;16.17;9.02;;;410.50;1945.60;;;;;;5091726;28;20069;-66
2021/05/19 09:00:55;;;;;;;21.42;8.15;;;435.20;1945.60;;;;;;5091738;28;20032;-66
2021/05/19 09:03:21;;;;;;;14.50;7.80;;;435.20;1920.00;;;;;;5091897;28;20369;-66
2021/05/19 09:05:52;;;;;;;10.77;6.68;;;435.20;1971.20;;;;;;5086587;28;20123;-67
2021/05/19 09:08:20;;;;;;;10.73;7.38;;;435.30;1971.20;;;;;;5091462;28;20062;-66
2021/05/19 09:11:00;;;;;;;11.18;6.65;;;435.30;1945.60;;;;;;5090635;28;20126;-67
2021/05/19 09:13:37;;;;;;;13.55;7.35;;;435.40;1920.00;;;;;;5090174;28;20028;-67
2021/05/19 09:16:04;;;;;;;14.80;7.03;;;435.30;1945.60;;;;;;5088972;28;20036;-67
2021/05/19 09:18:51;;;;;;;11.05;5.80;;;435.30;1920.00;;;;;;5090239;28;20472;-67
2021/05/19 09:21:36;;;;;;;8.40;6.28;;;435.30;1894.40;;;;;;5090902;28;20499;-68
2021/05/19 09:24:06;;;;;;;9.93;6.60;;;435.30;1894.40;;;;;;5089553;28;20028;-67
2021/05/19 09:26:32;;;;;;;8.98;6.20;;;435.30;1894.40;;;;;;5091110;28;20465;-67
2021/05/19 09:29:24;;;;;;;7.57;6.78;;;435.30;1894.40;;;;;;5090632;28;20101;-66
2021/05/19 09:31:58;;;;;;;9.30;6.80;;;435.30;1920.00;;;;;;5090506;28;20047;-67
2021/05/19 09:34:37;;;;;;;12.45;6.53;;;435.30;1920.00;;;;;;5090304;28;20111;-66
2021/05/19 09:37:24;;;;;;;7.57;6.85;;;435.40;1920.00;;;;;;5091737;28;20027;-66
2021/05/19 09:39:54;;;;;;;8.38;6.95;;;435.40;1945.60;;;;;;5092166;28;20503;-66
2021/05/19 09:42:23;;;;;;;9.25;7.03;;;435.40;1945.60;;;;;;5091693;28;20032;-66
2021/05/19 09:44:50;;;;;;;9.60;7.68;;;435.40;1945.60;;;;;;5091804;28;20081;-67
2021/05/19 09:47:35;;;;;;;11.35;8.07;;;435.40;1945.60;;;;;;5090187;28;20388;-67
2021/05/19 09:50:01;;;;;;;13.05;8.50;;;435.50;1971.20;;;;;;5090002;28;20115;-66
2021/05/19 09:52:27;;;;;;;10.27;8.98;;;435.50;1971.20;;;;;;5090551;28;20107;-67
2021/05/19 09:55:00;;;;;;;12.93;8.23;;;435.50;1996.80;;;;;;5090264;28;20092;-66
2021/05/19 09:57:27;;;;;;;;;;;435.60;1971.20;;;;;;5090417;28;20082;-66
2021/05/19 09:59:53;;;;;;;13.38;9.52;;;435.50;1971.20;;;;;;5090540;28;19953;-68
2021/05/19 10:02:23;;;;;;;13.40;9.82;;;435.50;1971.20;;;;;;5090038;28;20040;-67
2021/05/19 10:04:54;;;;;;;11.45;7.57;;;435.50;1971.20;;;;;;5090595;28;20023;-67
2021/05/19 10:07:20;;;;;;;17.88;8.27;;;435.50;1920.00;;;;;;5086887;28;20054;-68
2021/05/19 10:09:46;;;;;;;17.85;8.27;;;435.40;1920.00;;;;;;5090417;28;20020;-66
2021/05/19 10:12:13;;;;;;;12.95;8.57;;;435.50;1945.60;;;;;;5091800;28;20024;-68
2021/05/19 10:14:41;;;;;;;12.00;7.82;;;435.50;1920.00;;;;;;5091251;28;20036;-66
2021/05/19 10:17:10;;;;;;;16.05;9.07;;;435.50;1920.00;;;;;;5090379;28;20036;-67
2021/05/19 10:19:43;;;;;;;10.63;7.90;;;435.50;1920.00;;;;;;5091774;28;20031;-67
2021/05/19 10:22:12;;;;;;;10.80;8.25;;;435.60;1920.00;;;;;;5091615;28;20119;-66
2021/05/19 10:24:59;;;;;;;13.00;8.10;;;435.60;1894.40;;;;;;5091217;28;20673;-66
2021/05/19 10:27:25;;;;;;;10.85;8.52;;;435.60;1920.00;;;;;;5071239;28;20032;-67
2021/05/19 10:29:58;;;;;;;10.15;7.70;;;435.60;1868.80;;;;;;5072464;28;20064;-67
2021/05/19 10:32:28;;;;;;;13.45;8.13;;;435.60;1894.40;;;;;;5075699;28;20499;-66
2021/05/19 10:34:59;;;;;;;12.73;8.13;;;435.60;1894.40;;;;;;5075658;28;20056;-64
2021/05/19 10:37:28;;;;;;;13.82;9.20;;;435.70;1920.00;;;;;;5075257;28;20537;-65
2021/05/19 10:40:18;;;;;;;18.58;11.38;;;435.70;1894.40;;;;;;5075728;28;20021;-66
2021/05/19 10:42:58;;;;;;;32.78;16.48;;;435.70;1868.80;;;;;;5080700;28;20089;-68
2021/05/19 10:45:25;;;;;;;20.73;13.27;;;435.70;1868.80;;;;;;5094914;28;20099;-68
2021/05/19 10:47:51;;;;;;;19.83;10.07;;;435.80;1843.20;;;;;;5093865;28;20017;-64
2021/05/19 10:50:34;;;;;;;15.48;9.48;;;435.80;1843.20;;;;;;5093910;28;20131;-64
2021/05/19 11:01:11;;;;;;;21.35;14.55;;;436.00;1817.60;;;;;;5094057;28;20585;-65
2021/05/19 11:04:01;;;;;;;20.23;13.93;;;436.10;1843.20;;;;;;5094368;28;20054;-67
2021/05/19 11:06:27;;;;;;;16.15;9.95;;;460.80;1868.80;;;;;;5094398;28;20032;-63
2021/05/19 11:09:27;;;;;;;17.55;11.93;;;460.80;1868.80;;;;;;5094515;28;20034;-68
2021/05/19 11:12:26;;;;;;;16.65;11.25;;;460.80;1868.80;;;;;;5094951;28;20377;-66
2021/05/19 11:15:00;;;;;;;16.33;10.65;;;460.80;1792.00;;;;;;5094002;28;20512;-68
2021/05/19 11:17:47;;;;;;;12.68;10.02;;;460.80;1868.80;;;;;;5094902;28;20028;-66
2021/05/19 11:20:13;;;;;;;15.48;10.20;;;436.10;1817.60;;;;;;5091848;28;20024;-68
2021/05/19 11:22:39;;;;;;;17.67;8.88;;;436.10;1792.00;;;;;;5093636;28;20485;-67
2021/05/19 11:25:06;;;;;;;12.23;7.80;;;436.10;1792.00;;;;;;5093525;28;20099;-66
2021/05/19 11:27:33;;;;;;;13.95;8.02;;;436.00;1766.40;;;;;;5094308;28;20031;-67
2021/05/19 11:30:00;;;;;;;15.50;9.05;;;436.10;1792.00;;;;;;5094244;28;20024;-67
2021/05/19 11:32:31;;;;;;;17.80;11.55;;;436.00;1817.60;;;;;;5094020;28;20106;-66
2021/05/19 11:35:17;;;;;;;18.38;12.45;;;436.00;1843.20;;;;;;5094273;28;20492;-67
2021/05/19 11:38:04;;;;;;;13.38;9.35;;;436.10;1843.20;;;;;;5092154;28;20406;-66
2021/05/19 11:40:39;;;;;;;11.90;9.38;;;436.00;1843.20;;;;;;5092301;28;20545;-66
2021/05/19 11:43:06;;;;;;;11.25;7.95;;;436.00;1894.40;;;;;;5092602;28;20032;-69
2021/05/19 11:45:32;;;;;;;11.95;7.40;;;436.00;1868.80;;;;;;5092827;28;20035;-66
2021/05/19 11:47:58;;;;;;;8.77;7.05;;;436.00;1920.00;;;;;;5093652;28;20092;-68
2021/05/19 11:50:27;;;;;;;13.27;8.55;;;435.90;1894.40;;;;;;5093040;28;20705;-68
2021/05/19 11:53:10;;;;;;;13.75;8.05;;;435.90;1920.00;;;;;;5092155;28;20018;-67
2021/05/19 11:55:52;;;;;;;12.57;8.30;;;436.00;1920.00;;;;;;5092660;28;20032;-67
2021/05/19 11:58:32;;;;;;;19.23;9.00;;;435.90;1920.00;;;;;;5092800;28;20493;-65
2021/05/19 12:01:07;;;;;;;12.65;9.07;;;435.90;1945.60;;;;;;5092540;28;20066;-65
2021/05/19 12:03:38;;;;;;;10.85;8.70;;;460.80;1996.80;;;;;;5091792;28;20052;-66
2021/05/19 12:06:10;;;;;;;14.05;10.93;;;435.80;1971.20;;;;;;5089186;28;20028;-62
2021/05/19 12:08:44;;;;;;;17.40;12.00;;;435.80;1996.80;;;;;;5073534;28;20428;-66
2021/05/19 12:11:16;;;;;;;16.08;11.15;;;435.80;2022.40;;;;;;5072888;28;20123;-68
2021/05/19 12:13:55;;;;;;;14.30;9.85;;;435.60;2048.00;;;;;;5084376;28;20107;-66
2021/05/19 12:16:39;;;;;;;10.02;6.25;;;435.50;2022.40;;;;;;5091474;28;20059;-66
2021/05/19 12:19:25;;;;;;;7.35;5.20;;;435.40;2048.00;;;;;;5091829;28;20023;-68
2021/05/19 12:22:05;;;;;;;10.52;6.35;;;435.40;2022.40;;;;;;5091914;28;20385;-66
2021/05/19 12:24:32;;;;;;;12.57;6.57;;;435.40;2022.40;;;;;;5092144;28;20024;-67
2021/05/19 12:26:58;;;;;;;15.02;6.90;;;435.40;2048.00;;;;;;5092940;28;20039;-67
2021/05/19 12:29:39;;;;;;;9.57;5.47;;;435.30;2073.60;;;;;;5092168;28;20016;-67